createdAt,value
2022-12-31T00:01:26.973Z,18.45
2022-12-31T00:06:32.870Z,19.01
2022-12-31T00:11:37.010Z,18.93
2022-12-31T00:16:41.863Z,18.99
2022-12-31T00:21:46.700Z,18.97
2022-12-31T00:26:50.053Z,18.73
2022-12-31T00:31:53.350Z,19.55
2022-12-31T00:36:58.156Z,18.72
2022-12-31T00:42:01.495Z,19.28
2022-12-31T00:47:04.941Z,19.40
2022-12-31T00:52:09.830Z,19.30
2022-12-31T00:57:13.469Z,19.77
2022-12-31T01:02:16.913Z,19.78
2022-12-31T01:07:21.677Z,19.77
2022-12-31T01:12:25.782Z,19.23
2022-12-31T01:17:29.402Z,19.86
2022-12-31T01:22:34.077Z,19.91
2022-12-31T01:27:37.360Z,19.90
2022-12-31T01:32:40.648Z,19.30
2022-12-31T01:37:45.417Z,19.32
2022-12-31T01:42:55.234Z,19.18
2022-12-31T01:48:00.245Z,18.53
2022-12-31T01:53:06.214Z,18.92
2022-12-31T01:58:12.122Z,19.43
2022-12-31T02:03:15.540Z,19.56
2022-12-31T02:08:20.361Z,19.39
2022-12-31T02:13:23.765Z,19.33
2022-12-31T02:18:32.033Z,20.20
2022-12-31T02:23:57.430Z,19.76
2022-12-31T02:29:20.982Z,19.30
2022-12-31T02:34:29.319Z,19.05
2022-12-31T02:39:33.486Z,19.45
2022-12-31T02:44:38.395Z,19.72
2022-12-31T02:49:49.946Z,19.47
2022-12-31T02:54:58.596Z,19.80
2022-12-31T03:00:21.585Z,19.65
2022-12-31T03:05:29.375Z,20.09
2022-12-31T03:10:32.768Z,20.02
2022-12-31T03:15:36.105Z,20.38
2022-12-31T03:20:59.865Z,20.56
2022-12-31T03:26:03.977Z,20.02
2022-12-31T03:31:08.033Z,20.68
2022-12-31T03:36:14.415Z,20.50
2022-12-31T03:41:17.716Z,20.62
2022-12-31T03:46:21.085Z,20.81
2022-12-31T03:51:25.767Z,20.89
2022-12-31T03:56:29.317Z,20.94
2022-12-31T04:01:32.697Z,20.65
2022-12-31T04:06:37.608Z,20.08
2022-12-31T04:11:40.945Z,20.45
2022-12-31T04:16:44.716Z,20.25
2022-12-31T04:21:50.618Z,20.46
2022-12-31T04:26:53.919Z,20.46
2022-12-31T04:31:57.347Z,20.13
2022-12-31T04:37:02.221Z,19.99
2022-12-31T04:42:05.765Z,20.44
2022-12-31T04:47:09.181Z,20.72
2022-12-31T04:52:13.928Z,21.06
2022-12-31T04:57:17.325Z,20.00
2022-12-31T05:02:20.820Z,19.61
2022-12-31T05:07:25.623Z,19.55
2022-12-31T05:12:28.966Z,20.55
2022-12-31T05:17:32.258Z,20.65
2022-12-31T05:22:37.450Z,21.04
2022-12-31T05:27:40.814Z,20.80
2022-12-31T05:32:44.175Z,21.24
2022-12-31T05:37:49.123Z,21.35
2022-12-31T05:42:52.650Z,20.93
2022-12-31T05:47:55.975Z,21.06
2022-12-31T05:53:00.691Z,21.15
2022-12-31T05:58:04.093Z,20.97
2022-12-31T06:03:07.504Z,21.08
2022-12-31T06:08:12.824Z,21.10
2022-12-31T06:13:17.247Z,21.39
2022-12-31T06:18:20.944Z,21.54
2022-12-31T06:23:25.798Z,21.70
2022-12-31T06:28:29.183Z,21.68
2022-12-31T06:33:32.944Z,21.66
2022-12-31T06:38:39.301Z,21.64
2022-12-31T06:43:43.529Z,21.42
2022-12-31T06:48:46.973Z,21.43
2022-12-31T06:53:52.589Z,21.58
2022-12-31T06:58:56.957Z,21.77
2022-12-31T07:04:11.162Z,21.70
2022-12-31T07:09:23.547Z,21.63
2022-12-31T07:14:33.657Z,21.55
2022-12-31T07:19:46.392Z,21.16
2022-12-31T07:24:51.784Z,21.16
2022-12-31T07:30:03.439Z,19.29
2022-12-31T07:35:13.667Z,20.64
2022-12-31T07:40:21.327Z,21.04
2022-12-31T07:45:28.505Z,20.46
2022-12-31T07:50:32.576Z,18.21
2022-12-31T07:55:37.395Z,19.09
2022-12-31T08:00:40.885Z,19.54
2022-12-31T08:05:50.132Z,20.38
2022-12-31T08:11:04.505Z,20.34
2022-12-31T08:16:12.616Z,20.60
2022-12-31T08:21:23.388Z,20.02
2022-12-31T08:26:36.743Z,20.77
2022-12-31T08:31:47.712Z,19.90
2022-12-31T08:36:54.547Z,20.95
2022-12-31T08:41:59.904Z,20.67
2022-12-31T08:47:10.716Z,21.14
2022-12-31T08:52:17.429Z,21.19
2022-12-31T08:57:27.251Z,21.48
2022-12-31T09:02:53.042Z,21.61
2022-12-31T09:08:07.525Z,21.45
2022-12-31T09:13:18.103Z,21.62
2022-12-31T09:18:22.058Z,21.43
2022-12-31T09:23:25.789Z,21.25
2022-12-31T09:28:38.995Z,21.47
2022-12-31T09:33:50.111Z,21.33
2022-12-31T09:39:00.163Z,21.45
2022-12-31T09:44:52.469Z,20.91
2022-12-31T09:50:32.341Z,21.12
2022-12-31T09:55:38.434Z,21.35
2022-12-31T10:00:52.311Z,21.16
2022-12-31T10:06:12.917Z,21.12
2022-12-31T10:11:20.802Z,21.22
2022-12-31T10:16:45.278Z,21.71
2022-12-31T10:21:55.932Z,21.18
2022-12-31T10:27:08.225Z,21.47
2022-12-31T10:32:20.139Z,22.20
2022-12-31T10:37:26.056Z,22.76
2022-12-31T10:43:00.838Z,22.42
2022-12-31T10:48:37.495Z,21.83
2022-12-31T10:53:51.268Z,22.16
2022-12-31T10:59:28.519Z,22.68
2022-12-31T11:05:08.168Z,21.77
2022-12-31T11:10:36.899Z,23.14
2022-12-31T11:15:55.444Z,21.96
2022-12-31T11:21:28.453Z,22.20
2022-12-31T11:26:40.291Z,23.19
2022-12-31T11:31:53.120Z,22.44
2022-12-31T11:37:11.973Z,22.15
2022-12-31T11:42:21.960Z,21.95
2022-12-31T11:48:03.879Z,22.40
2022-12-31T11:53:23.936Z,22.64
2022-12-31T11:58:28.618Z,23.07
2022-12-31T12:03:32.872Z,22.92
2022-12-31T12:08:37.985Z,22.53
2022-12-31T12:13:41.614Z,22.53
2022-12-31T12:18:46.523Z,22.94
2022-12-31T12:23:59.321Z,23.60
2022-12-31T12:29:10.358Z,22.94
2022-12-31T12:34:24.433Z,23.74
2022-12-31T12:39:31.273Z,23.41
2022-12-31T12:44:35.712Z,22.97
2022-12-31T12:49:40.885Z,23.49
2022-12-31T12:54:58.189Z,23.69
2022-12-31T13:00:10.817Z,24.04
2022-12-31T13:05:27.666Z,24.01
2022-12-31T13:10:48.896Z,23.68
2022-12-31T13:15:57.703Z,23.49
2022-12-31T13:21:04.701Z,23.28
2022-12-31T13:26:29.892Z,24.02
2022-12-31T13:31:35.621Z,23.75
2022-12-31T13:36:41.503Z,22.56
2022-12-31T13:41:49.710Z,23.20
2022-12-31T13:46:58.903Z,22.19
2022-12-31T13:57:18.733Z,23.41
2022-12-31T14:02:32.747Z,23.51
2022-12-31T14:07:45.293Z,23.28
2022-12-31T14:12:54.790Z,22.85
2022-12-31T14:18:03.064Z,22.50
2022-12-31T14:23:12.784Z,23.65
2022-12-31T14:28:20.428Z,23.59
2022-12-31T14:33:32.665Z,22.88
2022-12-31T14:38:51.507Z,22.72
2022-12-31T14:44:03.380Z,22.80
2022-12-31T14:49:17.300Z,22.92
2022-12-31T14:54:29.224Z,22.88
2022-12-31T14:59:40.110Z,22.29
2022-12-31T15:04:46.094Z,23.30
2022-12-31T15:10:00.851Z,22.48
2022-12-31T15:15:15.629Z,22.74
2022-12-31T15:20:29.901Z,22.28
2022-12-31T15:25:40.740Z,21.96
2022-12-31T15:30:47.814Z,22.05
2022-12-31T15:35:53.379Z,22.33
2022-12-31T15:40:56.770Z,22.93
2022-12-31T15:46:02.068Z,23.24
2022-12-31T15:51:06.343Z,22.72
2022-12-31T15:56:17.138Z,22.44
2022-12-31T16:01:23.173Z,23.07
2022-12-31T16:06:28.557Z,22.80
2022-12-31T16:11:32.242Z,22.82
2022-12-31T16:16:37.028Z,22.85
2022-12-31T16:21:40.488Z,22.82
2022-12-31T16:26:45.877Z,23.19
2022-12-31T16:31:53.095Z,23.11
2022-12-31T16:36:58.672Z,22.46
2022-12-31T16:42:19.886Z,23.02
2022-12-31T16:47:26.218Z,22.48
2022-12-31T16:52:33.319Z,23.37
2022-12-31T16:57:36.895Z,23.08
2022-12-31T17:02:43.855Z,22.81
2022-12-31T17:07:47.439Z,22.73
2022-12-31T17:18:21.811Z,22.82
2022-12-31T17:23:26.887Z,22.81
2022-12-31T17:28:33.293Z,23.42
2022-12-31T17:33:38.086Z,23.33
2022-12-31T17:38:41.403Z,23.19
2022-12-31T17:43:44.807Z,23.26
2022-12-31T17:48:53.085Z,22.93
2022-12-31T17:53:56.483Z,22.85
2022-12-31T17:59:00.401Z,22.92
2022-12-31T18:04:07.244Z,22.57
2022-12-31T18:09:10.828Z,22.90
2022-12-31T18:14:15.407Z,23.64
2022-12-31T18:19:45.697Z,23.24
2022-12-31T18:24:43.601Z,23.32
2022-12-31T18:29:47.796Z,23.28
2022-12-31T18:34:52.823Z,22.58
2022-12-31T18:39:56.408Z,23.43
2022-12-31T18:44:59.772Z,22.76
2022-12-31T18:50:04.909Z,23.06
2022-12-31T18:55:22.306Z,23.76
2022-12-31T19:00:25.759Z,23.48
2022-12-31T19:05:32.355Z,23.56
2022-12-31T19:10:35.935Z,23.47
2022-12-31T19:15:42.628Z,23.15
2022-12-31T19:20:47.520Z,23.18
2022-12-31T19:25:51.339Z,23.29
2022-12-31T19:30:55.146Z,23.12
2022-12-31T19:35:59.972Z,22.94
2022-12-31T19:41:03.487Z,23.33
2022-12-31T19:46:06.986Z,22.78
2022-12-31T19:51:13.299Z,22.65
2022-12-31T19:56:18.488Z,22.71
2022-12-31T20:01:23.904Z,22.61
2022-12-31T20:06:28.823Z,22.17
2022-12-31T20:11:32.686Z,22.08
2022-12-31T20:16:36.174Z,22.76
2022-12-31T20:21:41.914Z,22.49
2022-12-31T20:26:45.317Z,23.07
2022-12-31T20:31:48.700Z,22.74
2022-12-31T20:36:53.476Z,22.82
2022-12-31T20:41:56.902Z,23.09
2022-12-31T20:47:00.280Z,22.90
2022-12-31T20:52:05.906Z,22.16
2022-12-31T20:57:09.377Z,22.50
2022-12-31T21:02:22.856Z,22.61
2022-12-31T21:07:31.235Z,22.55
2022-12-31T21:12:53.152Z,22.57
2022-12-31T21:17:56.594Z,22.50
2022-12-31T21:23:01.334Z,22.21
2022-12-31T21:28:04.814Z,21.98
2022-12-31T21:33:08.643Z,22.56
2022-12-31T21:38:13.472Z,22.81
2022-12-31T21:43:17.156Z,22.47
2022-12-31T21:48:24.934Z,22.53
2022-12-31T21:53:36.710Z,22.32
2022-12-31T21:58:42.273Z,22.30
2022-12-31T22:03:45.899Z,22.13
2022-12-31T22:08:52.156Z,22.60
2022-12-31T22:13:56.649Z,22.67
2022-12-31T22:18:59.998Z,22.07
2022-12-31T22:24:05.412Z,22.85
2022-12-31T22:29:10.190Z,22.88
2022-12-31T22:34:13.763Z,22.83
2022-12-31T22:39:44.019Z,22.58
2022-12-31T22:44:42.308Z,22.96
2022-12-31T22:49:45.707Z,22.87
2022-12-31T22:54:50.704Z,22.95
2022-12-31T22:59:54.056Z,22.70
2022-12-31T23:05:15.354Z,22.97
2022-12-31T23:10:38.456Z,22.38
2022-12-31T23:16:03.121Z,22.69
2022-12-31T23:21:28.120Z,22.91
2022-12-31T23:26:32.926Z,22.71
2022-12-31T23:31:37.270Z,22.41
2022-12-31T23:36:40.707Z,22.39
2022-12-31T23:41:45.450Z,22.99
2022-12-31T23:46:48.806Z,22.76
2022-12-31T23:51:52.428Z,23.11
2022-12-31T23:56:57.174Z,22.83
